sensor_id;sensor_type;location;lat;lon;timestamp;P1;durP1;ratioP1;P2;durP2;ratioP2
18265;SDS011;9259;48.194;16.322;2023-08-07T00:00:10;0.47;;;0.28;;
18265;SDS011;9259;48.194;16.322;2023-08-07T00:02:40;0.20;;;0.20;;
18265;SDS011;9259;48.194;16.322;2023-08-07T00:05:08;0.25;;;0.20;;
18265;SDS011;9259;48.194;16.322;2023-08-07T00:07:36;0.75;;;0.43;;
18265;SDS011;9259;48.194;16.322;2023-08-07T00:10:05;2.42;;;0.30;;
18265;SDS011;9259;48.194;16.322;2023-08-07T00:12:34;0.60;;;0.20;;
18265;SDS011;9259;48.194;16.322;2023-08-07T00:15:02;0.32;;;0.30;;
18265;SDS011;9259;48.194;16.322;2023-08-07T00:17:30;0.65;;;0.30;;
18265;SDS011;9259;48.194;16.322;2023-08-07T00:20:00;0.30;;;0.20;;
18265;SDS011;9259;48.194;16.322;2023-08-07T00:22:28;0.45;;;0.30;;
18265;SDS011;9259;48.194;16.322;2023-08-07T00:24:56;1.02;;;0.20;;
18265;SDS011;9259;48.194;16.322;2023-08-07T00:27:24;1.65;;;0.30;;
18265;SDS011;9259;48.194;16.322;2023-08-07T00:29:52;0.75;;;0.28;;
18265;SDS011;9259;48.194;16.322;2023-08-07T00:32:20;0.82;;;0.40;;
18265;SDS011;9259;48.194;16.322;2023-08-07T00:34:48;0.30;;;0.20;;
18265;SDS011;9259;48.194;16.322;2023-08-07T00:37:17;0.50;;;0.35;;
18265;SDS011;9259;48.194;16.322;2023-08-07T00:39:46;0.38;;;0.25;;
18265;SDS011;9259;48.194;16.322;2023-08-07T00:42:14;0.57;;;0.20;;
18265;SDS011;9259;48.194;16.322;2023-08-07T00:44:41;3.63;;;0.40;;
18265;SDS011;9259;48.194;16.322;2023-08-07T00:47:09;0.52;;;0.40;;
18265;SDS011;9259;48.194;16.322;2023-08-07T00:49:37;1.25;;;0.35;;
18265;SDS011;9259;48.194;16.322;2023-08-07T00:52:06;0.30;;;0.20;;
18265;SDS011;9259;48.194;16.322;2023-08-07T00:54:36;0.68;;;0.30;;
18265;SDS011;9259;48.194;16.322;2023-08-07T00:57:07;1.00;;;0.30;;
18265;SDS011;9259;48.194;16.322;2023-08-07T00:59:37;0.47;;;0.40;;
18265;SDS011;9259;48.194;16.322;2023-08-07T01:02:06;0.50;;;0.40;;
18265;SDS011;9259;48.194;16.322;2023-08-07T01:04:35;0.75;;;0.30;;
18265;SDS011;9259;48.194;16.322;2023-08-07T01:07:05;2.50;;;0.30;;
18265;SDS011;9259;48.194;16.322;2023-08-07T01:09:33;0.43;;;0.40;;
18265;SDS011;9259;48.194;16.322;2023-08-07T01:12:06;2.15;;;0.30;;
18265;SDS011;9259;48.194;16.322;2023-08-07T01:14:42;0.50;;;0.25;;
18265;SDS011;9259;48.194;16.322;2023-08-07T01:17:16;1.23;;;0.40;;
18265;SDS011;9259;48.194;16.322;2023-08-07T01:19:46;0.95;;;0.35;;
18265;SDS011;9259;48.194;16.322;2023-08-07T01:22:16;0.75;;;0.30;;
18265;SDS011;9259;48.194;16.322;2023-08-07T01:24:46;1.00;;;0.40;;
18265;SDS011;9259;48.194;16.322;2023-08-07T01:27:20;0.55;;;0.40;;
18265;SDS011;9259;48.194;16.322;2023-08-07T01:29:57;0.70;;;0.40;;
18265;SDS011;9259;48.194;16.322;2023-08-07T01:32:31;0.70;;;0.40;;
18265;SDS011;9259;48.194;16.322;2023-08-07T01:35:01;0.70;;;0.40;;
18265;SDS011;9259;48.194;16.322;2023-08-07T01:37:33;0.93;;;0.43;;
18265;SDS011;9259;48.194;16.322;2023-08-07T01:40:02;2.03;;;0.32;;
18265;SDS011;9259;48.194;16.322;2023-08-07T01:42:31;0.60;;;0.30;;
18265;SDS011;9259;48.194;16.322;2023-08-07T01:44:59;1.83;;;0.50;;
18265;SDS011;9259;48.194;16.322;2023-08-07T01:47:27;0.80;;;0.35;;
18265;SDS011;9259;48.194;16.322;2023-08-07T01:49:55;0.68;;;0.40;;
18265;SDS011;9259;48.194;16.322;2023-08-07T01:52:23;0.40;;;0.30;;
18265;SDS011;9259;48.194;16.322;2023-08-07T01:54:53;0.50;;;0.40;;
18265;SDS011;9259;48.194;16.322;2023-08-07T01:57:21;0.95;;;0.50;;
18265;SDS011;9259;48.194;16.322;2023-08-07T01:59:49;0.50;;;0.40;;
18265;SDS011;9259;48.194;16.322;2023-08-07T02:02:18;1.77;;;0.60;;
18265;SDS011;9259;48.194;16.322;2023-08-07T02:04:46;2.63;;;0.45;;
18265;SDS011;9259;48.194;16.322;2023-08-07T02:07:14;3.15;;;0.52;;
18265;SDS011;9259;48.194;16.322;2023-08-07T02:09:42;1.20;;;0.38;;
18265;SDS011;9259;48.194;16.322;2023-08-07T02:12:12;1.10;;;0.32;;
18265;SDS011;9259;48.194;16.322;2023-08-07T02:14:40;1.17;;;0.40;;
18265;SDS011;9259;48.194;16.322;2023-08-07T02:17:09;0.57;;;0.40;;
18265;SDS011;9259;48.194;16.322;2023-08-07T02:19:37;0.80;;;0.47;;
18265;SDS011;9259;48.194;16.322;2023-08-07T02:22:05;0.77;;;0.40;;
18265;SDS011;9259;48.194;16.322;2023-08-07T02:24:33;0.82;;;0.45;;
18265;SDS011;9259;48.194;16.322;2023-08-07T02:27:01;2.42;;;0.40;;
18265;SDS011;9259;48.194;16.322;2023-08-07T02:29:31;2.60;;;0.60;;
18265;SDS011;9259;48.194;16.322;2023-08-07T02:32:00;1.92;;;0.70;;
18265;SDS011;9259;48.194;16.322;2023-08-07T02:34:29;1.42;;;0.57;;
18265;SDS011;9259;48.194;16.322;2023-08-07T02:36:57;1.88;;;0.47;;
18265;SDS011;9259;48.194;16.322;2023-08-07T02:39:26;3.03;;;0.45;;
18265;SDS011;9259;48.194;16.322;2023-08-07T02:41:54;1.52;;;0.65;;
18265;SDS011;9259;48.194;16.322;2023-08-07T02:44:22;2.47;;;0.47;;
18265;SDS011;9259;48.194;16.322;2023-08-07T02:46:51;2.38;;;0.55;;
18265;SDS011;9259;48.194;16.322;2023-08-07T02:49:19;1.88;;;0.60;;
18265;SDS011;9259;48.194;16.322;2023-08-07T02:51:47;2.85;;;0.50;;
18265;SDS011;9259;48.194;16.322;2023-08-07T02:54:15;1.90;;;0.60;;
18265;SDS011;9259;48.194;16.322;2023-08-07T02:56:43;1.52;;;0.50;;
18265;SDS011;9259;48.194;16.322;2023-08-07T02:59:11;0.53;;;0.40;;
18265;SDS011;9259;48.194;16.322;2023-08-07T03:01:39;0.70;;;0.43;;
18265;SDS011;9259;48.194;16.322;2023-08-07T03:04:10;0.93;;;0.50;;
18265;SDS011;9259;48.194;16.322;2023-08-07T03:06:38;0.70;;;0.38;;
18265;SDS011;9259;48.194;16.322;2023-08-07T03:09:06;0.75;;;0.45;;
18265;SDS011;9259;48.194;16.322;2023-08-07T03:11:34;1.35;;;0.55;;
18265;SDS011;9259;48.194;16.322;2023-08-07T03:14:03;1.33;;;0.47;;
18265;SDS011;9259;48.194;16.322;2023-08-07T03:16:33;0.68;;;0.40;;
18265;SDS011;9259;48.194;16.322;2023-08-07T03:19:01;1.00;;;0.45;;
18265;SDS011;9259;48.194;16.322;2023-08-07T03:21:30;0.90;;;0.38;;
18265;SDS011;9259;48.194;16.322;2023-08-07T03:23:58;0.75;;;0.40;;
18265;SDS011;9259;48.194;16.322;2023-08-07T03:26:26;0.50;;;0.30;;
18265;SDS011;9259;48.194;16.322;2023-08-07T03:28:54;1.50;;;0.50;;
18265;SDS011;9259;48.194;16.322;2023-08-07T03:31:22;2.17;;;0.50;;
18265;SDS011;9259;48.194;16.322;2023-08-07T03:33:50;1.80;;;0.45;;
18265;SDS011;9259;48.194;16.322;2023-08-07T03:36:19;1.50;;;0.47;;
18265;SDS011;9259;48.194;16.322;2023-08-07T03:38:48;2.23;;;0.40;;
18265;SDS011;9259;48.194;16.322;2023-08-07T03:41:16;1.23;;;0.50;;
18265;SDS011;9259;48.194;16.322;2023-08-07T03:43:45;1.43;;;0.47;;
18265;SDS011;9259;48.194;16.322;2023-08-07T03:46:13;2.10;;;0.50;;
18265;SDS011;9259;48.194;16.322;2023-08-07T03:48:44;2.27;;;0.40;;
18265;SDS011;9259;48.194;16.322;2023-08-07T03:51:13;0.97;;;0.53;;
18265;SDS011;9259;48.194;16.322;2023-08-07T03:53:42;1.53;;;0.30;;
18265;SDS011;9259;48.194;16.322;2023-08-07T03:56:12;1.57;;;0.20;;
18265;SDS011;9259;48.194;16.322;2023-08-07T03:58:40;3.50;;;0.50;;
18265;SDS011;9259;48.194;16.322;2023-08-07T04:01:08;2.20;;;0.50;;
18265;SDS011;9259;48.194;16.322;2023-08-07T04:03:39;1.87;;;0.40;;
18265;SDS011;9259;48.194;16.322;2023-08-07T04:06:07;0.83;;;0.40;;
18265;SDS011;9259;48.194;16.322;2023-08-07T04:08:38;1.40;;;0.80;;
18265;SDS011;9259;48.194;16.322;2023-08-07T04:11:06;0.50;;;0.33;;
18265;SDS011;9259;48.194;16.322;2023-08-07T04:13:39;1.43;;;0.30;;
18265;SDS011;9259;48.194;16.322;2023-08-07T04:16:07;1.33;;;0.30;;
18265;SDS011;9259;48.194;16.322;2023-08-07T04:18:35;0.70;;;0.20;;
18265;SDS011;9259;48.194;16.322;2023-08-07T04:21:03;0.63;;;0.30;;
18265;SDS011;9259;48.194;16.322;2023-08-07T04:23:31;0.50;;;0.30;;
18265;SDS011;9259;48.194;16.322;2023-08-07T04:25:59;0.47;;;0.33;;
18265;SDS011;9259;48.194;16.322;2023-08-07T04:28:28;0.73;;;0.20;;
18265;SDS011;9259;48.194;16.322;2023-08-07T04:30:57;1.63;;;0.30;;
18265;SDS011;9259;48.194;16.322;2023-08-07T04:33:25;1.43;;;0.43;;
18265;SDS011;9259;48.194;16.322;2023-08-07T04:35:54;1.00;;;0.20;;
18265;SDS011;9259;48.194;16.322;2023-08-07T04:38:22;0.30;;;0.20;;
18265;SDS011;9259;48.194;16.322;2023-08-07T04:40:51;1.40;;;0.20;;
18265;SDS011;9259;48.194;16.322;2023-08-07T04:43:19;0.63;;;0.30;;
18265;SDS011;9259;48.194;16.322;2023-08-07T04:45:48;0.30;;;0.20;;
18265;SDS011;9259;48.194;16.322;2023-08-07T04:48:17;0.50;;;0.23;;
18265;SDS011;9259;48.194;16.322;2023-08-07T04:50:46;0.40;;;0.30;;
18265;SDS011;9259;48.194;16.322;2023-08-07T04:53:15;1.63;;;0.20;;
18265;SDS011;9259;48.194;16.322;2023-08-07T04:55:43;0.17;;;0.17;;
18265;SDS011;9259;48.194;16.322;2023-08-07T04:58:12;1.00;;;0.20;;
18265;SDS011;9259;48.194;16.322;2023-08-07T05:00:40;0.40;;;0.20;;
18265;SDS011;9259;48.194;16.322;2023-08-07T05:03:17;0.30;;;0.20;;
18265;SDS011;9259;48.194;16.322;2023-08-07T05:05:45;4.20;;;0.30;;
18265;SDS011;9259;48.194;16.322;2023-08-07T05:08:13;0.43;;;0.10;;
18265;SDS011;9259;48.194;16.322;2023-08-07T05:10:42;0.27;;;0.20;;
18265;SDS011;9259;48.194;16.322;2023-08-07T05:13:10;1.07;;;0.20;;
18265;SDS011;9259;48.194;16.322;2023-08-07T05:15:38;0.37;;;0.10;;
18265;SDS011;9259;48.194;16.322;2023-08-07T05:18:06;3.40;;;0.10;;
18265;SDS011;9259;48.194;16.322;2023-08-07T05:20:36;0.53;;;0.30;;
18265;SDS011;9259;48.194;16.322;2023-08-07T05:23:05;3.70;;;0.20;;
18265;SDS011;9259;48.194;16.322;2023-08-07T05:25:33;0.80;;;0.20;;
18265;SDS011;9259;48.194;16.322;2023-08-07T05:28:01;2.43;;;0.30;;
18265;SDS011;9259;48.194;16.322;2023-08-07T05:30:29;0.20;;;0.20;;
18265;SDS011;9259;48.194;16.322;2023-08-07T05:32:57;0.63;;;0.10;;
18265;SDS011;9259;48.194;16.322;2023-08-07T05:35:25;0.37;;;0.10;;
18265;SDS011;9259;48.194;16.322;2023-08-07T05:37:54;0.17;;;0.10;;
18265;SDS011;9259;48.194;16.322;2023-08-07T05:40:22;2.00;;;0.20;;
18265;SDS011;9259;48.194;16.322;2023-08-07T05:42:50;0.50;;;0.17;;
18265;SDS011;9259;48.194;16.322;2023-08-07T05:45:18;0.70;;;0.20;;
18265;SDS011;9259;48.194;16.322;2023-08-07T05:47:45;0.40;;;0.10;;
18265;SDS011;9259;48.194;16.322;2023-08-07T05:50:13;1.30;;;0.10;;
18265;SDS011;9259;48.194;16.322;2023-08-07T05:52:41;0.87;;;0.20;;
18265;SDS011;9259;48.194;16.322;2023-08-07T05:55:10;0.13;;;0.10;;
18265;SDS011;9259;48.194;16.322;2023-08-07T05:57:38;1.00;;;0.10;;
18265;SDS011;9259;48.194;16.322;2023-08-07T06:00:06;0.33;;;0.10;;
18265;SDS011;9259;48.194;16.322;2023-08-07T06:02:40;0.13;;;0.07;;
18265;SDS011;9259;48.194;16.322;2023-08-07T06:05:09;0.50;;;0.30;;
18265;SDS011;9259;48.194;16.322;2023-08-07T06:07:39;1.10;;;0.10;;
18265;SDS011;9259;48.194;16.322;2023-08-07T06:10:08;3.20;;;0.10;;
18265;SDS011;9259;48.194;16.322;2023-08-07T06:12:37;0.20;;;0.10;;
18265;SDS011;9259;48.194;16.322;2023-08-07T06:15:05;0.40;;;0.10;;
18265;SDS011;9259;48.194;16.322;2023-08-07T06:17:34;1.80;;;0.10;;
18265;SDS011;9259;48.194;16.322;2023-08-07T06:20:02;0.23;;;0.13;;
18265;SDS011;9259;48.194;16.322;2023-08-07T06:22:31;0.20;;;0.20;;
18265;SDS011;9259;48.194;16.322;2023-08-07T06:24:59;0.10;;;0.10;;
18265;SDS011;9259;48.194;16.322;2023-08-07T06:27:28;0.10;;;0.10;;
18265;SDS011;9259;48.194;16.322;2023-08-07T06:29:56;0.10;;;0.10;;
18265;SDS011;9259;48.194;16.322;2023-08-07T06:32:24;0.53;;;0.13;;
18265;SDS011;9259;48.194;16.322;2023-08-07T06:34:52;2.67;;;0.10;;
18265;SDS011;9259;48.194;16.322;2023-08-07T06:37:20;0.77;;;0.10;;
18265;SDS011;9259;48.194;16.322;2023-08-07T06:39:48;1.50;;;0.20;;
18265;SDS011;9259;48.194;16.322;2023-08-07T06:42:15;0.08;;;0.05;;
18265;SDS011;9259;48.194;16.322;2023-08-07T06:44:45;3.80;;;0.10;;
18265;SDS011;9259;48.194;16.322;2023-08-07T06:47:13;2.55;;;0.10;;
18265;SDS011;9259;48.194;16.322;2023-08-07T06:49:41;1.43;;;0.10;;
18265;SDS011;9259;48.194;16.322;2023-08-07T06:52:09;0.45;;;0.10;;
18265;SDS011;9259;48.194;16.322;2023-08-07T06:54:37;0.53;;;0.30;;
18265;SDS011;9259;48.194;16.322;2023-08-07T06:57:05;4.53;;;0.20;;
18265;SDS011;9259;48.194;16.322;2023-08-07T06:59:33;0.10;;;0.10;;
18265;SDS011;9259;48.194;16.322;2023-08-07T07:02:03;4.45;;;0.10;;
18265;SDS011;9259;48.194;16.322;2023-08-07T07:04:31;0.10;;;0.10;;
18265;SDS011;9259;48.194;16.322;2023-08-07T07:06:59;0.97;;;0.20;;
18265;SDS011;9259;48.194;16.322;2023-08-07T07:09:27;0.40;;;0.10;;
18265;SDS011;9259;48.194;16.322;2023-08-07T07:11:57;0.77;;;0.10;;
18265;SDS011;9259;48.194;16.322;2023-08-07T07:14:25;0.40;;;0.10;;
18265;SDS011;9259;48.194;16.322;2023-08-07T07:16:54;0.43;;;0.07;;
18265;SDS011;9259;48.194;16.322;2023-08-07T07:19:24;0.20;;;0.17;;
18265;SDS011;9259;48.194;16.322;2023-08-07T07:21:52;0.43;;;0.20;;
18265;SDS011;9259;48.194;16.322;2023-08-07T07:24:20;0.40;;;0.10;;
18265;SDS011;9259;48.194;16.322;2023-08-07T07:26:48;0.30;;;0.13;;
18265;SDS011;9259;48.194;16.322;2023-08-07T07:29:16;0.90;;;0.33;;
18265;SDS011;9259;48.194;16.322;2023-08-07T07:31:44;0.27;;;0.20;;
18265;SDS011;9259;48.194;16.322;2023-08-07T07:34:12;2.17;;;0.43;;
18265;SDS011;9259;48.194;16.322;2023-08-07T07:36:42;0.97;;;0.20;;
18265;SDS011;9259;48.194;16.322;2023-08-07T07:39:09;0.77;;;0.20;;
18265;SDS011;9259;48.194;16.322;2023-08-07T07:41:38;1.80;;;0.13;;
18265;SDS011;9259;48.194;16.322;2023-08-07T07:44:06;0.20;;;0.17;;
18265;SDS011;9259;48.194;16.322;2023-08-07T07:46:34;3.37;;;0.50;;
18265;SDS011;9259;48.194;16.322;2023-08-07T07:49:01;0.20;;;0.10;;
18265;SDS011;9259;48.194;16.322;2023-08-07T07:51:30;0.53;;;0.30;;
18265;SDS011;9259;48.194;16.322;2023-08-07T07:54:01;0.67;;;0.20;;
18265;SDS011;9259;48.194;16.322;2023-08-07T07:56:29;0.40;;;0.20;;
18265;SDS011;9259;48.194;16.322;2023-08-07T07:58:57;1.10;;;0.20;;
18265;SDS011;9259;48.194;16.322;2023-08-07T08:01:25;5.30;;;0.57;;
18265;SDS011;9259;48.194;16.322;2023-08-07T08:03:54;1.50;;;0.40;;
18265;SDS011;9259;48.194;16.322;2023-08-07T08:06:22;0.37;;;0.20;;
18265;SDS011;9259;48.194;16.322;2023-08-07T08:08:49;0.60;;;0.30;;
18265;SDS011;9259;48.194;16.322;2023-08-07T08:11:19;0.60;;;0.30;;
18265;SDS011;9259;48.194;16.322;2023-08-07T08:13:47;0.45;;;0.30;;
18265;SDS011;9259;48.194;16.322;2023-08-07T08:16:14;2.47;;;0.33;;
18265;SDS011;9259;48.194;16.322;2023-08-07T08:18:42;0.40;;;0.27;;
18265;SDS011;9259;48.194;16.322;2023-08-07T08:21:10;2.00;;;0.28;;
18265;SDS011;9259;48.194;16.322;2023-08-07T08:23:38;1.65;;;0.40;;
18265;SDS011;9259;48.194;16.322;2023-08-07T08:26:06;4.03;;;0.40;;
18265;SDS011;9259;48.194;16.322;2023-08-07T08:28:35;2.22;;;0.20;;
18265;SDS011;9259;48.194;16.322;2023-08-07T08:31:03;4.10;;;0.47;;
18265;SDS011;9259;48.194;16.322;2023-08-07T08:33:31;3.60;;;0.40;;
18265;SDS011;9259;48.194;16.322;2023-08-07T08:35:59;0.67;;;0.30;;
18265;SDS011;9259;48.194;16.322;2023-08-07T08:38:27;0.60;;;0.22;;
18265;SDS011;9259;48.194;16.322;2023-08-07T08:40:58;2.13;;;0.50;;
18265;SDS011;9259;48.194;16.322;2023-08-07T08:43:29;2.40;;;0.40;;
18265;SDS011;9259;48.194;16.322;2023-08-07T08:46:03;1.00;;;0.50;;
18265;SDS011;9259;48.194;16.322;2023-08-07T08:48:33;1.40;;;0.30;;
18265;SDS011;9259;48.194;16.322;2023-08-07T08:51:02;0.47;;;0.45;;
18265;SDS011;9259;48.194;16.322;2023-08-07T08:53:38;0.45;;;0.25;;
18265;SDS011;9259;48.194;16.322;2023-08-07T08:56:06;0.47;;;0.40;;
18265;SDS011;9259;48.194;16.322;2023-08-07T08:58:35;1.15;;;0.50;;
18265;SDS011;9259;48.194;16.322;2023-08-07T09:01:04;2.20;;;0.40;;
18265;SDS011;9259;48.194;16.322;2023-08-07T09:03:32;3.43;;;0.40;;
18265;SDS011;9259;48.194;16.322;2023-08-07T09:06:00;1.15;;;0.32;;
18265;SDS011;9259;48.194;16.322;2023-08-07T09:08:28;0.77;;;0.30;;
18265;SDS011;9259;48.194;16.322;2023-08-07T09:10:58;0.60;;;0.40;;
18265;SDS011;9259;48.194;16.322;2023-08-07T09:13:26;4.63;;;0.30;;
18265;SDS011;9259;48.194;16.322;2023-08-07T09:15:57;0.70;;;0.40;;
18265;SDS011;9259;48.194;16.322;2023-08-07T09:18:27;0.30;;;0.20;;
18265;SDS011;9259;48.194;16.322;2023-08-07T09:20:55;1.33;;;0.40;;
18265;SDS011;9259;48.194;16.322;2023-08-07T09:23:24;0.47;;;0.30;;
18265;SDS011;9259;48.194;16.322;2023-08-07T09:25:58;0.93;;;0.70;;
18265;SDS011;9259;48.194;16.322;2023-08-07T09:28:26;1.97;;;0.40;;
18265;SDS011;9259;48.194;16.322;2023-08-07T09:30:57;1.13;;;0.50;;
18265;SDS011;9259;48.194;16.322;2023-08-07T09:33:28;1.10;;;0.43;;
18265;SDS011;9259;48.194;16.322;2023-08-07T09:35:57;2.10;;;0.40;;
18265;SDS011;9259;48.194;16.322;2023-08-07T09:38:27;1.00;;;0.33;;
18265;SDS011;9259;48.194;16.322;2023-08-07T09:40:58;1.47;;;0.40;;
18265;SDS011;9259;48.194;16.322;2023-08-07T09:43:26;2.17;;;0.40;;
18265;SDS011;9259;48.194;16.322;2023-08-07T09:46:02;1.67;;;0.70;;
18265;SDS011;9259;48.194;16.322;2023-08-07T09:48:30;1.13;;;0.50;;
18265;SDS011;9259;48.194;16.322;2023-08-07T09:51:00;0.73;;;0.40;;
18265;SDS011;9259;48.194;16.322;2023-08-07T09:53:29;1.10;;;0.60;;
18265;SDS011;9259;48.194;16.322;2023-08-07T09:55:57;1.17;;;0.50;;
18265;SDS011;9259;48.194;16.322;2023-08-07T09:58:26;0.37;;;0.37;;
18265;SDS011;9259;48.194;16.322;2023-08-07T10:00:54;1.97;;;0.50;;
18265;SDS011;9259;48.194;16.322;2023-08-07T10:03:26;0.70;;;0.57;;
18265;SDS011;9259;48.194;16.322;2023-08-07T10:05:54;1.07;;;0.50;;
18265;SDS011;9259;48.194;16.322;2023-08-07T10:08:22;1.90;;;0.63;;
18265;SDS011;9259;48.194;16.322;2023-08-07T10:10:51;1.67;;;0.70;;
18265;SDS011;9259;48.194;16.322;2023-08-07T10:13:20;1.17;;;0.40;;
18265;SDS011;9259;48.194;16.322;2023-08-07T10:15:49;1.70;;;0.77;;
18265;SDS011;9259;48.194;16.322;2023-08-07T10:18:18;1.60;;;0.50;;
18265;SDS011;9259;48.194;16.322;2023-08-07T10:20:48;1.20;;;0.50;;
18265;SDS011;9259;48.194;16.322;2023-08-07T10:23:16;3.53;;;0.47;;
18265;SDS011;9259;48.194;16.322;2023-08-07T10:25:45;1.30;;;0.63;;
18265;SDS011;9259;48.194;16.322;2023-08-07T10:28:16;2.73;;;0.70;;
18265;SDS011;9259;48.194;16.322;2023-08-07T10:30:45;2.43;;;0.67;;
18265;SDS011;9259;48.194;16.322;2023-08-07T10:33:14;2.57;;;0.47;;
18265;SDS011;9259;48.194;16.322;2023-08-07T10:35:46;0.70;;;0.47;;
18265;SDS011;9259;48.194;16.322;2023-08-07T10:38:18;2.23;;;0.50;;
18265;SDS011;9259;48.194;16.322;2023-08-07T10:41:01;1.50;;;0.80;;
18265;SDS011;9259;48.194;16.322;2023-08-07T10:43:36;2.73;;;0.60;;
18265;SDS011;9259;48.194;16.322;2023-08-07T10:46:05;1.23;;;0.70;;
18265;SDS011;9259;48.194;16.322;2023-08-07T10:48:40;1.63;;;0.80;;
18265;SDS011;9259;48.194;16.322;2023-08-07T10:51:13;2.00;;;0.53;;
18265;SDS011;9259;48.194;16.322;2023-08-07T10:53:42;1.60;;;0.83;;
18265;SDS011;9259;48.194;16.322;2023-08-07T10:56:14;1.60;;;0.67;;
18265;SDS011;9259;48.194;16.322;2023-08-07T10:58:47;4.03;;;0.80;;
18265;SDS011;9259;48.194;16.322;2023-08-07T11:01:20;1.80;;;0.70;;
18265;SDS011;9259;48.194;16.322;2023-08-07T11:03:49;1.63;;;0.60;;
18265;SDS011;9259;48.194;16.322;2023-08-07T11:06:23;3.83;;;0.70;;
18265;SDS011;9259;48.194;16.322;2023-08-07T11:08:53;2.00;;;0.80;;
18265;SDS011;9259;48.194;16.322;2023-08-07T11:11:21;3.47;;;0.97;;
18265;SDS011;9259;48.194;16.322;2023-08-07T11:13:49;0.73;;;0.53;;
18265;SDS011;9259;48.194;16.322;2023-08-07T11:16:18;1.73;;;0.63;;
18265;SDS011;9259;48.194;16.322;2023-08-07T11:18:47;0.97;;;0.60;;
18265;SDS011;9259;48.194;16.322;2023-08-07T11:21:15;2.30;;;0.93;;
18265;SDS011;9259;48.194;16.322;2023-08-07T11:23:45;1.10;;;0.63;;
18265;SDS011;9259;48.194;16.322;2023-08-07T11:26:13;1.50;;;0.87;;
18265;SDS011;9259;48.194;16.322;2023-08-07T11:28:41;1.20;;;0.80;;
18265;SDS011;9259;48.194;16.322;2023-08-07T11:31:09;1.17;;;0.70;;
18265;SDS011;9259;48.194;16.322;2023-08-07T11:33:39;1.60;;;0.80;;
18265;SDS011;9259;48.194;16.322;2023-08-07T11:36:10;1.87;;;0.70;;
18265;SDS011;9259;48.194;16.322;2023-08-07T11:38:39;1.60;;;0.90;;
18265;SDS011;9259;48.194;16.322;2023-08-07T11:41:11;0.73;;;0.50;;
18265;SDS011;9259;48.194;16.322;2023-08-07T11:43:41;1.27;;;0.70;;
18265;SDS011;9259;48.194;16.322;2023-08-07T11:46:10;2.87;;;0.97;;
18265;SDS011;9259;48.194;16.322;2023-08-07T11:48:39;2.73;;;0.70;;
18265;SDS011;9259;48.194;16.322;2023-08-07T11:51:09;0.90;;;0.60;;
18265;SDS011;9259;48.194;16.322;2023-08-07T11:53:38;1.33;;;1.00;;
18265;SDS011;9259;48.194;16.322;2023-08-07T11:56:08;2.30;;;0.70;;
18265;SDS011;9259;48.194;16.322;2023-08-07T11:58:40;1.87;;;0.87;;
18265;SDS011;9259;48.194;16.322;2023-08-07T12:01:12;0.93;;;0.60;;
18265;SDS011;9259;48.194;16.322;2023-08-07T12:03:42;1.93;;;0.83;;
18265;SDS011;9259;48.194;16.322;2023-08-07T12:06:19;2.10;;;0.80;;
18265;SDS011;9259;48.194;16.322;2023-08-07T12:08:48;1.03;;;0.60;;
18265;SDS011;9259;48.194;16.322;2023-08-07T12:11:19;1.70;;;0.90;;
18265;SDS011;9259;48.194;16.322;2023-08-07T12:13:48;1.27;;;0.70;;
18265;SDS011;9259;48.194;16.322;2023-08-07T12:16:16;1.50;;;0.83;;
18265;SDS011;9259;48.194;16.322;2023-08-07T12:18:44;3.77;;;0.90;;
18265;SDS011;9259;48.194;16.322;2023-08-07T12:21:14;3.00;;;0.80;;
18265;SDS011;9259;48.194;16.322;2023-08-07T12:23:44;1.47;;;0.77;;
18265;SDS011;9259;48.194;16.322;2023-08-07T12:26:13;1.50;;;0.90;;
18265;SDS011;9259;48.194;16.322;2023-08-07T12:28:43;1.63;;;0.83;;
18265;SDS011;9259;48.194;16.322;2023-08-07T12:31:11;2.73;;;0.97;;
18265;SDS011;9259;48.194;16.322;2023-08-07T12:33:39;2.37;;;1.00;;
18265;SDS011;9259;48.194;16.322;2023-08-07T12:36:07;2.17;;;1.00;;
18265;SDS011;9259;48.194;16.322;2023-08-07T12:38:36;1.30;;;0.80;;
18265;SDS011;9259;48.194;16.322;2023-08-07T12:41:04;1.53;;;0.80;;
18265;SDS011;9259;48.194;16.322;2023-08-07T12:43:34;1.37;;;0.80;;
18265;SDS011;9259;48.194;16.322;2023-08-07T12:46:03;1.33;;;0.70;;
18265;SDS011;9259;48.194;16.322;2023-08-07T12:48:31;2.07;;;1.00;;
18265;SDS011;9259;48.194;16.322;2023-08-07T12:50:59;3.13;;;0.90;;
18265;SDS011;9259;48.194;16.322;2023-08-07T12:53:28;2.33;;;1.37;;
18265;SDS011;9259;48.194;16.322;2023-08-07T12:55:57;2.13;;;1.10;;
18265;SDS011;9259;48.194;16.322;2023-08-07T12:58:25;2.20;;;0.97;;
18265;SDS011;9259;48.194;16.322;2023-08-07T13:00:55;2.60;;;1.10;;
18265;SDS011;9259;48.194;16.322;2023-08-07T13:03:24;2.30;;;0.80;;
18265;SDS011;9259;48.194;16.322;2023-08-07T13:05:52;2.10;;;0.93;;
18265;SDS011;9259;48.194;16.322;2023-08-07T13:08:20;2.43;;;0.90;;
18265;SDS011;9259;48.194;16.322;2023-08-07T13:10:48;4.23;;;0.77;;
18265;SDS011;9259;48.194;16.322;2023-08-07T13:13:17;1.30;;;0.80;;
18265;SDS011;9259;48.194;16.322;2023-08-07T13:15:44;1.67;;;1.08;;
18265;SDS011;9259;48.194;16.322;2023-08-07T13:18:12;1.42;;;0.90;;
18265;SDS011;9259;48.194;16.322;2023-08-07T13:20:43;2.25;;;0.90;;
18265;SDS011;9259;48.194;16.322;2023-08-07T13:23:11;3.08;;;1.10;;
18265;SDS011;9259;48.194;16.322;2023-08-07T13:25:40;2.33;;;0.77;;
18265;SDS011;9259;48.194;16.322;2023-08-07T13:28:08;1.50;;;0.80;;
18265;SDS011;9259;48.194;16.322;2023-08-07T13:30:37;1.85;;;0.90;;
18265;SDS011;9259;48.194;16.322;2023-08-07T13:33:05;1.10;;;0.70;;
18265;SDS011;9259;48.194;16.322;2023-08-07T13:35:33;1.00;;;0.68;;
18265;SDS011;9259;48.194;16.322;2023-08-07T13:38:02;2.65;;;0.90;;
18265;SDS011;9259;48.194;16.322;2023-08-07T13:40:33;0.82;;;0.60;;
18265;SDS011;9259;48.194;16.322;2023-08-07T13:43:01;2.58;;;1.17;;
18265;SDS011;9259;48.194;16.322;2023-08-07T13:45:35;1.00;;;0.68;;
18265;SDS011;9259;48.194;16.322;2023-08-07T13:48:07;1.15;;;0.70;;
18265;SDS011;9259;48.194;16.322;2023-08-07T13:50:36;1.52;;;0.80;;
18265;SDS011;9259;48.194;16.322;2023-08-07T13:53:09;1.58;;;0.80;;
18265;SDS011;9259;48.194;16.322;2023-08-07T13:55:38;1.70;;;0.90;;
18265;SDS011;9259;48.194;16.322;2023-08-07T13:58:08;2.65;;;0.77;;
18265;SDS011;9259;48.194;16.322;2023-08-07T14:00:47;1.75;;;0.88;;
18265;SDS011;9259;48.194;16.322;2023-08-07T14:03:17;2.53;;;0.73;;
18265;SDS011;9259;48.194;16.322;2023-08-07T14:05:47;3.30;;;0.98;;
18265;SDS011;9259;48.194;16.322;2023-08-07T14:08:19;3.28;;;0.95;;
18265;SDS011;9259;48.194;16.322;2023-08-07T14:10:49;2.33;;;0.80;;
18265;SDS011;9259;48.194;16.322;2023-08-07T14:13:19;1.40;;;1.00;;
18265;SDS011;9259;48.194;16.322;2023-08-07T14:15:49;1.60;;;0.77;;
18265;SDS011;9259;48.194;16.322;2023-08-07T14:18:18;2.55;;;0.90;;
18265;SDS011;9259;48.194;16.322;2023-08-07T14:20:48;4.78;;;0.93;;
18265;SDS011;9259;48.194;16.322;2023-08-07T14:23:16;3.67;;;1.00;;
18265;SDS011;9259;48.194;16.322;2023-08-07T14:25:46;2.30;;;0.90;;
18265;SDS011;9259;48.194;16.322;2023-08-07T14:28:16;1.35;;;0.80;;
18265;SDS011;9259;48.194;16.322;2023-08-07T14:30:44;2.83;;;1.17;;
18265;SDS011;9259;48.194;16.322;2023-08-07T14:33:12;2.05;;;1.00;;
18265;SDS011;9259;48.194;16.322;2023-08-07T14:35:40;3.47;;;0.90;;
18265;SDS011;9259;48.194;16.322;2023-08-07T14:38:08;1.50;;;0.90;;
18265;SDS011;9259;48.194;16.322;2023-08-07T14:40:41;3.00;;;0.88;;
18265;SDS011;9259;48.194;16.322;2023-08-07T14:43:09;3.78;;;1.13;;
18265;SDS011;9259;48.194;16.322;2023-08-07T14:45:37;1.30;;;0.80;;
18265;SDS011;9259;48.194;16.322;2023-08-07T14:48:05;2.35;;;1.00;;
18265;SDS011;9259;48.194;16.322;2023-08-07T14:50:33;1.33;;;0.68;;
18265;SDS011;9259;48.194;16.322;2023-08-07T14:53:01;1.42;;;0.80;;
18265;SDS011;9259;48.194;16.322;2023-08-07T14:55:30;3.08;;;1.02;;
18265;SDS011;9259;48.194;16.322;2023-08-07T14:57:59;2.83;;;0.98;;